Terminal Aerodrome Forecast
Issued by NWS

Home | Current Version | Previous Version | Text Only | Print | Product List | Glossary On
Versions: 1 2 3 4 5 6 7 8 9 10 11 12 13 14 15 16 17 18 19 20 21 22 23 24
085
FTUS44 KOUN 252342
TAFCSM
TAF
KCSM 252342Z 2600/2624 36015G20KT P6SM OVC120
      TEMPO 2602/2605 5SM SHRA OVC020
     FM261200 36020G25KT P6SM OVC020
     FM261500 36015G25KT P6SM BKN030 BKN180
     FM262200 36006KT P6SM SKC=

USA.gov is the U.S. government's official web portal to all federal, state and local government web resources and services.